sensor_id;sensor_type;location;lat;lon;timestamp;P1;durP1;ratioP1;P2;durP2;ratioP2
20379;SDS011;10349;48.666;8.948;2022-08-24T00:00:59;5.33;;;5.00;;
20379;SDS011;10349;48.666;8.948;2022-08-24T00:03:25;5.33;;;4.93;;
20379;SDS011;10349;48.666;8.948;2022-08-24T00:05:51;5.67;;;5.17;;
20379;SDS011;10349;48.666;8.948;2022-08-24T00:08:17;4.47;;;4.27;;
20379;SDS011;10349;48.666;8.948;2022-08-24T00:10:44;5.00;;;4.73;;
20379;SDS011;10349;48.666;8.948;2022-08-24T00:13:10;5.03;;;4.73;;
20379;SDS011;10349;48.666;8.948;2022-08-24T00:15:36;5.43;;;5.03;;
20379;SDS011;10349;48.666;8.948;2022-08-24T00:18:02;5.20;;;4.80;;
20379;SDS011;10349;48.666;8.948;2022-08-24T00:20:27;8.23;;;4.80;;
20379;SDS011;10349;48.666;8.948;2022-08-24T00:22:53;6.53;;;5.13;;
20379;SDS011;10349;48.666;8.948;2022-08-24T00:25:19;5.07;;;4.77;;
20379;SDS011;10349;48.666;8.948;2022-08-24T00:27:45;5.63;;;5.23;;
20379;SDS011;10349;48.666;8.948;2022-08-24T00:30:12;4.83;;;4.53;;
20379;SDS011;10349;48.666;8.948;2022-08-24T00:32:40;4.90;;;4.50;;
20379;SDS011;10349;48.666;8.948;2022-08-24T00:35:07;5.80;;;5.33;;
20379;SDS011;10349;48.666;8.948;2022-08-24T00:37:34;5.40;;;5.03;;
20379;SDS011;10349;48.666;8.948;2022-08-24T00:40:02;5.40;;;4.90;;
20379;SDS011;10349;48.666;8.948;2022-08-24T00:42:32;5.67;;;5.37;;
20379;SDS011;10349;48.666;8.948;2022-08-24T00:44:58;5.93;;;5.43;;
20379;SDS011;10349;48.666;8.948;2022-08-24T00:47:24;5.43;;;5.07;;
20379;SDS011;10349;48.666;8.948;2022-08-24T00:49:57;6.40;;;5.20;;
20379;SDS011;10349;48.666;8.948;2022-08-24T00:52:29;5.60;;;5.00;;
20379;SDS011;10349;48.666;8.948;2022-08-24T00:55:01;5.53;;;5.00;;
20379;SDS011;10349;48.666;8.948;2022-08-24T00:57:35;5.60;;;5.20;;
20379;SDS011;10349;48.666;8.948;2022-08-24T01:00:12;6.30;;;5.70;;
20379;SDS011;10349;48.666;8.948;2022-08-24T01:02:44;5.37;;;4.87;;
20379;SDS011;10349;48.666;8.948;2022-08-24T01:05:13;5.07;;;4.77;;
20379;SDS011;10349;48.666;8.948;2022-08-24T01:07:40;6.97;;;5.70;;
20379;SDS011;10349;48.666;8.948;2022-08-24T01:10:11;5.77;;;5.37;;
20379;SDS011;10349;48.666;8.948;2022-08-24T01:12:40;6.17;;;5.67;;
20379;SDS011;10349;48.666;8.948;2022-08-24T01:15:09;6.23;;;5.73;;
20379;SDS011;10349;48.666;8.948;2022-08-24T01:17:35;5.63;;;5.30;;
20379;SDS011;10349;48.666;8.948;2022-08-24T01:20:20;6.27;;;5.70;;
20379;SDS011;10349;48.666;8.948;2022-08-24T01:22:55;5.90;;;5.37;;
20379;SDS011;10349;48.666;8.948;2022-08-24T01:25:30;5.70;;;5.30;;
20379;SDS011;10349;48.666;8.948;2022-08-24T01:28:00;5.07;;;4.77;;
20379;SDS011;10349;48.666;8.948;2022-08-24T01:30:30;6.07;;;5.47;;
20379;SDS011;10349;48.666;8.948;2022-08-24T01:32:58;5.97;;;5.57;;
20379;SDS011;10349;48.666;8.948;2022-08-24T01:35:26;5.77;;;5.40;;
20379;SDS011;10349;48.666;8.948;2022-08-24T01:37:52;5.70;;;5.30;;
20379;SDS011;10349;48.666;8.948;2022-08-24T01:40:20;6.73;;;5.30;;
20379;SDS011;10349;48.666;8.948;2022-08-24T01:42:52;10.53;;;6.07;;
20379;SDS011;10349;48.666;8.948;2022-08-24T01:45:20;5.23;;;4.83;;
20379;SDS011;10349;48.666;8.948;2022-08-24T01:47:45;6.00;;;5.60;;
20379;SDS011;10349;48.666;8.948;2022-08-24T01:50:11;5.57;;;5.23;;
20379;SDS011;10349;48.666;8.948;2022-08-24T01:52:38;6.33;;;5.93;;
20379;SDS011;10349;48.666;8.948;2022-08-24T01:55:07;6.47;;;5.90;;
20379;SDS011;10349;48.666;8.948;2022-08-24T01:57:33;6.10;;;5.60;;
20379;SDS011;10349;48.666;8.948;2022-08-24T02:00:00;5.70;;;5.40;;
20379;SDS011;10349;48.666;8.948;2022-08-24T02:02:38;5.70;;;5.40;;
20379;SDS011;10349;48.666;8.948;2022-08-24T02:05:06;7.47;;;5.67;;
20379;SDS011;10349;48.666;8.948;2022-08-24T02:07:34;5.70;;;5.33;;
20379;SDS011;10349;48.666;8.948;2022-08-24T02:09:59;6.30;;;5.83;;
20379;SDS011;10349;48.666;8.948;2022-08-24T02:12:25;5.57;;;5.23;;
20379;SDS011;10349;48.666;8.948;2022-08-24T02:14:51;7.20;;;6.60;;
20379;SDS011;10349;48.666;8.948;2022-08-24T02:17:17;6.23;;;5.77;;
20379;SDS011;10349;48.666;8.948;2022-08-24T02:19:44;6.57;;;5.97;;
20379;SDS011;10349;48.666;8.948;2022-08-24T02:22:11;5.90;;;5.40;;
20379;SDS011;10349;48.666;8.948;2022-08-24T02:24:37;6.00;;;5.60;;
20379;SDS011;10349;48.666;8.948;2022-08-24T02:27:03;5.43;;;5.03;;
20379;SDS011;10349;48.666;8.948;2022-08-24T02:29:29;5.80;;;5.30;;
20379;SDS011;10349;48.666;8.948;2022-08-24T02:31:56;6.40;;;6.00;;
20379;SDS011;10349;48.666;8.948;2022-08-24T02:34:22;6.83;;;6.23;;
20379;SDS011;10349;48.666;8.948;2022-08-24T02:36:48;5.77;;;5.43;;
20379;SDS011;10349;48.666;8.948;2022-08-24T02:39:14;5.53;;;5.20;;
20379;SDS011;10349;48.666;8.948;2022-08-24T02:41:43;5.97;;;5.37;;
20379;SDS011;10349;48.666;8.948;2022-08-24T02:44:09;6.00;;;5.50;;
20379;SDS011;10349;48.666;8.948;2022-08-24T02:46:35;6.47;;;5.90;;
20379;SDS011;10349;48.666;8.948;2022-08-24T02:49:02;6.57;;;5.77;;
20379;SDS011;10349;48.666;8.948;2022-08-24T02:51:30;5.80;;;5.40;;
20379;SDS011;10349;48.666;8.948;2022-08-24T02:53:58;6.00;;;5.60;;
20379;SDS011;10349;48.666;8.948;2022-08-24T02:56:26;5.67;;;5.27;;
20379;SDS011;10349;48.666;8.948;2022-08-24T02:58:54;5.30;;;4.90;;
20379;SDS011;10349;48.666;8.948;2022-08-24T03:01:21;8.60;;;5.53;;
20379;SDS011;10349;48.666;8.948;2022-08-24T03:03:46;5.57;;;5.03;;
20379;SDS011;10349;48.666;8.948;2022-08-24T03:06:12;6.23;;;5.73;;
20379;SDS011;10349;48.666;8.948;2022-08-24T03:08:38;5.63;;;5.23;;
20379;SDS011;10349;48.666;8.948;2022-08-24T03:11:06;5.30;;;5.00;;
20379;SDS011;10349;48.666;8.948;2022-08-24T03:13:33;6.70;;;6.20;;
20379;SDS011;10349;48.666;8.948;2022-08-24T03:15:59;5.83;;;5.50;;
20379;SDS011;10349;48.666;8.948;2022-08-24T03:18:25;7.10;;;6.43;;
20379;SDS011;10349;48.666;8.948;2022-08-24T03:20:52;6.43;;;6.03;;
20379;SDS011;10349;48.666;8.948;2022-08-24T03:23:18;6.00;;;5.50;;
20379;SDS011;10349;48.666;8.948;2022-08-24T03:25:45;7.10;;;6.40;;
20379;SDS011;10349;48.666;8.948;2022-08-24T03:28:11;6.30;;;5.80;;
20379;SDS011;10349;48.666;8.948;2022-08-24T03:30:38;5.40;;;4.97;;
20379;SDS011;10349;48.666;8.948;2022-08-24T03:33:05;6.53;;;6.03;;
20379;SDS011;10349;48.666;8.948;2022-08-24T03:35:31;7.13;;;6.10;;
20379;SDS011;10349;48.666;8.948;2022-08-24T03:37:58;6.57;;;5.97;;
20379;SDS011;10349;48.666;8.948;2022-08-24T03:40:25;6.10;;;5.70;;
20379;SDS011;10349;48.666;8.948;2022-08-24T03:42:54;6.33;;;5.83;;
20379;SDS011;10349;48.666;8.948;2022-08-24T03:45:20;6.73;;;6.03;;
20379;SDS011;10349;48.666;8.948;2022-08-24T03:47:48;5.63;;;5.23;;
20379;SDS011;10349;48.666;8.948;2022-08-24T03:50:13;6.70;;;6.20;;
20379;SDS011;10349;48.666;8.948;2022-08-24T03:52:39;6.87;;;6.33;;
20379;SDS011;10349;48.666;8.948;2022-08-24T03:55:06;7.10;;;6.40;;
20379;SDS011;10349;48.666;8.948;2022-08-24T03:57:33;5.97;;;5.57;;
20379;SDS011;10349;48.666;8.948;2022-08-24T03:59:59;6.30;;;5.90;;
20379;SDS011;10349;48.666;8.948;2022-08-24T04:02:26;10.93;;;6.60;;
20379;SDS011;10349;48.666;8.948;2022-08-24T04:04:51;6.60;;;6.10;;
20379;SDS011;10349;48.666;8.948;2022-08-24T04:07:17;5.60;;;5.30;;
20379;SDS011;10349;48.666;8.948;2022-08-24T04:09:43;5.97;;;5.57;;
20379;SDS011;10349;48.666;8.948;2022-08-24T04:12:09;6.83;;;6.30;;
20379;SDS011;10349;48.666;8.948;2022-08-24T04:14:35;5.93;;;5.53;;
20379;SDS011;10349;48.666;8.948;2022-08-24T04:17:08;6.17;;;5.77;;
20379;SDS011;10349;48.666;8.948;2022-08-24T04:19:38;7.57;;;7.00;;
20379;SDS011;10349;48.666;8.948;2022-08-24T04:22:25;6.23;;;5.80;;
20379;SDS011;10349;48.666;8.948;2022-08-24T04:24:53;6.83;;;6.20;;
20379;SDS011;10349;48.666;8.948;2022-08-24T04:27:19;6.57;;;6.10;;
20379;SDS011;10349;48.666;8.948;2022-08-24T04:29:45;8.20;;;7.43;;
20379;SDS011;10349;48.666;8.948;2022-08-24T04:32:10;8.40;;;5.80;;
20379;SDS011;10349;48.666;8.948;2022-08-24T04:34:39;6.93;;;6.07;;
20379;SDS011;10349;48.666;8.948;2022-08-24T04:37:06;7.10;;;6.60;;
20379;SDS011;10349;48.666;8.948;2022-08-24T04:39:33;6.90;;;6.40;;
20379;SDS011;10349;48.666;8.948;2022-08-24T04:42:15;9.00;;;8.27;;
20379;SDS011;10349;48.666;8.948;2022-08-24T04:44:43;7.40;;;6.70;;
20379;SDS011;10349;48.666;8.948;2022-08-24T04:47:08;6.50;;;6.10;;
20379;SDS011;10349;48.666;8.948;2022-08-24T04:49:36;6.27;;;5.83;;
20379;SDS011;10349;48.666;8.948;2022-08-24T04:52:04;7.00;;;6.40;;
20379;SDS011;10349;48.666;8.948;2022-08-24T04:54:30;8.90;;;6.83;;
20379;SDS011;10349;48.666;8.948;2022-08-24T04:57:08;6.80;;;6.30;;
20379;SDS011;10349;48.666;8.948;2022-08-24T04:59:34;6.83;;;6.20;;
20379;SDS011;10349;48.666;8.948;2022-08-24T05:02:00;6.87;;;6.23;;
20379;SDS011;10349;48.666;8.948;2022-08-24T05:04:26;7.90;;;7.20;;
20379;SDS011;10349;48.666;8.948;2022-08-24T05:06:51;6.17;;;5.67;;
20379;SDS011;10349;48.666;8.948;2022-08-24T05:09:18;6.30;;;5.90;;
20379;SDS011;10349;48.666;8.948;2022-08-24T05:11:44;6.90;;;6.43;;
20379;SDS011;10349;48.666;8.948;2022-08-24T05:14:12;8.03;;;7.33;;
20379;SDS011;10349;48.666;8.948;2022-08-24T05:16:38;7.90;;;7.20;;
20379;SDS011;10349;48.666;8.948;2022-08-24T05:19:04;7.17;;;6.67;;
20379;SDS011;10349;48.666;8.948;2022-08-24T05:21:31;6.67;;;6.27;;
20379;SDS011;10349;48.666;8.948;2022-08-24T05:23:57;6.40;;;6.00;;
20379;SDS011;10349;48.666;8.948;2022-08-24T05:26:26;7.83;;;7.13;;
20379;SDS011;10349;48.666;8.948;2022-08-24T05:28:58;7.60;;;7.00;;
20379;SDS011;10349;48.666;8.948;2022-08-24T05:31:31;10.13;;;5.90;;
20379;SDS011;10349;48.666;8.948;2022-08-24T05:34:02;7.03;;;6.63;;
20379;SDS011;10349;48.666;8.948;2022-08-24T05:36:30;7.80;;;7.00;;
20379;SDS011;10349;48.666;8.948;2022-08-24T05:38:58;9.30;;;8.07;;
20379;SDS011;10349;48.666;8.948;2022-08-24T05:41:25;8.03;;;7.30;;
20379;SDS011;10349;48.666;8.948;2022-08-24T05:43:59;9.77;;;7.93;;
20379;SDS011;10349;48.666;8.948;2022-08-24T05:46:25;8.17;;;7.53;;
20379;SDS011;10349;48.666;8.948;2022-08-24T05:48:53;8.00;;;7.30;;
20379;SDS011;10349;48.666;8.948;2022-08-24T05:51:27;8.63;;;7.83;;
20379;SDS011;10349;48.666;8.948;2022-08-24T05:53:58;8.43;;;7.73;;
20379;SDS011;10349;48.666;8.948;2022-08-24T05:56:31;9.17;;;8.33;;
20379;SDS011;10349;48.666;8.948;2022-08-24T05:58:58;8.80;;;7.97;;
20379;SDS011;10349;48.666;8.948;2022-08-24T06:01:25;8.50;;;7.83;;
20379;SDS011;10349;48.666;8.948;2022-08-24T06:03:51;8.70;;;7.90;;
20379;SDS011;10349;48.666;8.948;2022-08-24T06:06:19;10.23;;;9.20;;
20379;SDS011;10349;48.666;8.948;2022-08-24T06:08:47;7.77;;;7.17;;
20379;SDS011;10349;48.666;8.948;2022-08-24T06:11:19;9.10;;;8.20;;
20379;SDS011;10349;48.666;8.948;2022-08-24T06:13:54;13.43;;;7.60;;
20379;SDS011;10349;48.666;8.948;2022-08-24T06:16:23;16.13;;;8.00;;
20379;SDS011;10349;48.666;8.948;2022-08-24T06:18:51;8.77;;;7.97;;
20379;SDS011;10349;48.666;8.948;2022-08-24T06:21:20;8.17;;;7.40;;
20379;SDS011;10349;48.666;8.948;2022-08-24T06:23:48;7.90;;;7.30;;
20379;SDS011;10349;48.666;8.948;2022-08-24T06:26:16;11.20;;;8.50;;
20379;SDS011;10349;48.666;8.948;2022-08-24T06:29:01;8.80;;;7.83;;
20379;SDS011;10349;48.666;8.948;2022-08-24T06:31:28;11.10;;;9.17;;
20379;SDS011;10349;48.666;8.948;2022-08-24T06:33:55;8.73;;;7.93;;
20379;SDS011;10349;48.666;8.948;2022-08-24T06:36:21;8.70;;;7.83;;
20379;SDS011;10349;48.666;8.948;2022-08-24T06:38:47;7.87;;;7.20;;
20379;SDS011;10349;48.666;8.948;2022-08-24T06:41:14;9.17;;;8.37;;
20379;SDS011;10349;48.666;8.948;2022-08-24T06:43:40;8.30;;;7.67;;
20379;SDS011;10349;48.666;8.948;2022-08-24T06:46:10;9.50;;;7.83;;
20379;SDS011;10349;48.666;8.948;2022-08-24T06:48:39;8.07;;;7.47;;
20379;SDS011;10349;48.666;8.948;2022-08-24T06:51:09;7.90;;;7.10;;
20379;SDS011;10349;48.666;8.948;2022-08-24T06:53:37;8.40;;;7.60;;
20379;SDS011;10349;48.666;8.948;2022-08-24T06:56:05;7.17;;;6.67;;
20379;SDS011;10349;48.666;8.948;2022-08-24T06:58:32;7.40;;;6.80;;
20379;SDS011;10349;48.666;8.948;2022-08-24T07:01:06;7.47;;;6.87;;
20379;SDS011;10349;48.666;8.948;2022-08-24T07:03:47;7.20;;;6.70;;
20379;SDS011;10349;48.666;8.948;2022-08-24T07:06:35;7.20;;;6.70;;
20379;SDS011;10349;48.666;8.948;2022-08-24T07:09:03;8.40;;;7.80;;
20379;SDS011;10349;48.666;8.948;2022-08-24T07:11:29;7.70;;;7.00;;
20379;SDS011;10349;48.666;8.948;2022-08-24T07:13:56;7.13;;;6.53;;
20379;SDS011;10349;48.666;8.948;2022-08-24T07:16:22;7.67;;;6.97;;
20379;SDS011;10349;48.666;8.948;2022-08-24T07:18:51;6.93;;;6.43;;
20379;SDS011;10349;48.666;8.948;2022-08-24T07:21:19;7.33;;;6.80;;
20379;SDS011;10349;48.666;8.948;2022-08-24T07:23:52;8.60;;;7.10;;
20379;SDS011;10349;48.666;8.948;2022-08-24T07:26:20;7.93;;;7.23;;
20379;SDS011;10349;48.666;8.948;2022-08-24T07:28:50;7.00;;;6.50;;
20379;SDS011;10349;48.666;8.948;2022-08-24T07:31:18;6.23;;;5.83;;
20379;SDS011;10349;48.666;8.948;2022-08-24T07:33:52;10.07;;;7.07;;
20379;SDS011;10349;48.666;8.948;2022-08-24T07:36:18;7.20;;;6.60;;
20379;SDS011;10349;48.666;8.948;2022-08-24T07:38:44;7.50;;;6.20;;
20379;SDS011;10349;48.666;8.948;2022-08-24T07:41:12;6.73;;;6.13;;
20379;SDS011;10349;48.666;8.948;2022-08-24T07:43:39;8.73;;;5.80;;
20379;SDS011;10349;48.666;8.948;2022-08-24T07:46:05;7.10;;;6.53;;
20379;SDS011;10349;48.666;8.948;2022-08-24T07:48:32;5.87;;;5.40;;
20379;SDS011;10349;48.666;8.948;2022-08-24T07:51:06;6.70;;;6.20;;
20379;SDS011;10349;48.666;8.948;2022-08-24T07:53:33;5.23;;;4.93;;
20379;SDS011;10349;48.666;8.948;2022-08-24T07:55:59;5.60;;;5.20;;
20379;SDS011;10349;48.666;8.948;2022-08-24T07:58:25;6.70;;;6.20;;
20379;SDS011;10349;48.666;8.948;2022-08-24T08:00:51;5.57;;;5.07;;
20379;SDS011;10349;48.666;8.948;2022-08-24T08:03:16;4.80;;;4.50;;
20379;SDS011;10349;48.666;8.948;2022-08-24T08:05:43;5.23;;;4.40;;
20379;SDS011;10349;48.666;8.948;2022-08-24T08:08:09;7.57;;;5.23;;
20379;SDS011;10349;48.666;8.948;2022-08-24T08:10:36;5.43;;;4.83;;
20379;SDS011;10349;48.666;8.948;2022-08-24T08:13:04;4.90;;;4.63;;
20379;SDS011;10349;48.666;8.948;2022-08-24T08:15:30;5.10;;;4.80;;
20379;SDS011;10349;48.666;8.948;2022-08-24T08:18:08;7.40;;;4.47;;
20379;SDS011;10349;48.666;8.948;2022-08-24T08:20:37;4.27;;;3.97;;
20379;SDS011;10349;48.666;8.948;2022-08-24T08:23:04;4.97;;;4.63;;
20379;SDS011;10349;48.666;8.948;2022-08-24T08:25:59;4.73;;;4.43;;
20379;SDS011;10349;48.666;8.948;2022-08-24T08:28:38;5.40;;;4.90;;
20379;SDS011;10349;48.666;8.948;2022-08-24T08:31:06;4.50;;;4.20;;
20379;SDS011;10349;48.666;8.948;2022-08-24T08:33:32;5.00;;;4.70;;
20379;SDS011;10349;48.666;8.948;2022-08-24T08:38:32;4.30;;;4.00;;
20379;SDS011;10349;48.666;8.948;2022-08-24T08:49:08;5.13;;;4.30;;
20379;SDS011;10349;48.666;8.948;2022-08-24T09:03:04;2.43;;;2.27;;
20379;SDS011;10349;48.666;8.948;2022-08-24T09:11:48;2.97;;;2.77;;
20379;SDS011;10349;48.666;8.948;2022-08-24T09:20:30;3.30;;;3.10;;
20379;SDS011;10349;48.666;8.948;2022-08-24T09:26:08;2.87;;;2.73;;
20379;SDS011;10349;48.666;8.948;2022-08-24T09:29:11;3.07;;;2.87;;
20379;SDS011;10349;48.666;8.948;2022-08-24T09:31:44;2.53;;;2.43;;
20379;SDS011;10349;48.666;8.948;2022-08-24T09:35:12;2.70;;;2.60;;
20379;SDS011;10349;48.666;8.948;2022-08-24T09:46:06;3.57;;;3.37;;
20379;SDS011;10349;48.666;8.948;2022-08-24T10:02:32;3.17;;;2.97;;
20379;SDS011;10349;48.666;8.948;2022-08-24T10:05:25;2.93;;;2.73;;
20379;SDS011;10349;48.666;8.948;2022-08-24T10:10:57;2.83;;;2.73;;
20379;SDS011;10349;48.666;8.948;2022-08-24T10:13:47;2.90;;;2.70;;
20379;SDS011;10349;48.666;8.948;2022-08-24T10:21:54;5.03;;;2.23;;
20379;SDS011;10349;48.666;8.948;2022-08-24T10:27:38;2.53;;;2.37;;
20379;SDS011;10349;48.666;8.948;2022-08-24T10:30:45;2.30;;;2.20;;
20379;SDS011;10349;48.666;8.948;2022-08-24T10:33:44;2.50;;;2.10;;
20379;SDS011;10349;48.666;8.948;2022-08-24T10:36:52;2.60;;;2.40;;
20379;SDS011;10349;48.666;8.948;2022-08-24T10:39:47;4.47;;;1.87;;
20379;SDS011;10349;48.666;8.948;2022-08-24T10:53:48;2.33;;;2.17;;
20379;SDS011;10349;48.666;8.948;2022-08-24T10:56:20;6.10;;;2.43;;
20379;SDS011;10349;48.666;8.948;2022-08-24T11:01:58;2.30;;;2.20;;
20379;SDS011;10349;48.666;8.948;2022-08-24T11:04:28;2.60;;;2.40;;
20379;SDS011;10349;48.666;8.948;2022-08-24T11:09:49;3.20;;;3.00;;
20379;SDS011;10349;48.666;8.948;2022-08-24T11:17:51;2.30;;;2.20;;
20379;SDS011;10349;48.666;8.948;2022-08-24T11:20:38;2.73;;;2.53;;
20379;SDS011;10349;48.666;8.948;2022-08-24T11:23:16;4.10;;;2.30;;
20379;SDS011;10349;48.666;8.948;2022-08-24T11:28:43;2.97;;;2.77;;
20379;SDS011;10349;48.666;8.948;2022-08-24T11:31:34;2.70;;;2.60;;
20379;SDS011;10349;48.666;8.948;2022-08-24T11:34:05;2.60;;;2.40;;
20379;SDS011;10349;48.666;8.948;2022-08-24T11:36:35;2.80;;;2.60;;
20379;SDS011;10349;48.666;8.948;2022-08-24T11:39:16;3.07;;;2.87;;
20379;SDS011;10349;48.666;8.948;2022-08-24T11:44:36;2.90;;;2.10;;
20379;SDS011;10349;48.666;8.948;2022-08-24T11:52:38;3.90;;;2.37;;
20379;SDS011;10349;48.666;8.948;2022-08-24T11:55:21;2.20;;;2.00;;
20379;SDS011;10349;48.666;8.948;2022-08-24T11:57:56;2.27;;;2.07;;
20379;SDS011;10349;48.666;8.948;2022-08-24T12:00:31;2.50;;;2.30;;
20379;SDS011;10349;48.666;8.948;2022-08-24T12:03:25;3.20;;;2.77;;
20379;SDS011;10349;48.666;8.948;2022-08-24T12:08:38;2.67;;;2.43;;
20379;SDS011;10349;48.666;8.948;2022-08-24T12:11:31;2.17;;;2.07;;
20379;SDS011;10349;48.666;8.948;2022-08-24T12:14:17;2.37;;;2.27;;
20379;SDS011;10349;48.666;8.948;2022-08-24T12:19:33;2.80;;;2.63;;
20379;SDS011;10349;48.666;8.948;2022-08-24T12:22:05;2.40;;;2.30;;
20379;SDS011;10349;48.666;8.948;2022-08-24T12:24:40;3.80;;;1.97;;
20379;SDS011;10349;48.666;8.948;2022-08-24T12:27:21;2.70;;;2.50;;
20379;SDS011;10349;48.666;8.948;2022-08-24T12:30:04;2.67;;;2.47;;
20379;SDS011;10349;48.666;8.948;2022-08-24T12:35:31;2.20;;;2.10;;
20379;SDS011;10349;48.666;8.948;2022-08-24T12:38:14;2.50;;;2.40;;
20379;SDS011;10349;48.666;8.948;2022-08-24T12:40:51;4.27;;;2.57;;
20379;SDS011;10349;48.666;8.948;2022-08-24T12:43:30;1.93;;;1.83;;
20379;SDS011;10349;48.666;8.948;2022-08-24T12:46:03;2.00;;;1.80;;
20379;SDS011;10349;48.666;8.948;2022-08-24T12:48:41;2.27;;;2.07;;
20379;SDS011;10349;48.666;8.948;2022-08-24T12:53:57;1.90;;;1.80;;
20379;SDS011;10349;48.666;8.948;2022-08-24T12:56:40;1.70;;;1.60;;
20379;SDS011;10349;48.666;8.948;2022-08-24T12:59:12;2.17;;;1.97;;
20379;SDS011;10349;48.666;8.948;2022-08-24T13:09:47;1.60;;;1.50;;
20379;SDS011;10349;48.666;8.948;2022-08-24T13:17:51;1.80;;;1.70;;
20379;SDS011;10349;48.666;8.948;2022-08-24T13:20:22;2.03;;;1.77;;
20379;SDS011;10349;48.666;8.948;2022-08-24T13:31:04;1.90;;;1.80;;
20379;SDS011;10349;48.666;8.948;2022-08-24T13:33:48;2.03;;;1.93;;
20379;SDS011;10349;48.666;8.948;2022-08-24T13:41:44;1.50;;;1.40;;
20379;SDS011;10349;48.666;8.948;2022-08-24T13:44:30;1.63;;;1.53;;
20379;SDS011;10349;48.666;8.948;2022-08-24T13:50:09;1.87;;;1.77;;
20379;SDS011;10349;48.666;8.948;2022-08-24T13:53:15;1.70;;;1.60;;
20379;SDS011;10349;48.666;8.948;2022-08-24T13:56:16;2.23;;;1.57;;
20379;SDS011;10349;48.666;8.948;2022-08-24T14:07:07;1.73;;;1.63;;
20379;SDS011;10349;48.666;8.948;2022-08-24T14:09:47;2.50;;;1.73;;
20379;SDS011;10349;48.666;8.948;2022-08-24T14:23:43;1.90;;;1.80;;
20379;SDS011;10349;48.666;8.948;2022-08-24T14:39:53;1.67;;;1.57;;
20379;SDS011;10349;48.666;8.948;2022-08-24T14:42:35;1.50;;;1.40;;
20379;SDS011;10349;48.666;8.948;2022-08-24T14:50:34;1.97;;;1.87;;
20379;SDS011;10349;48.666;8.948;2022-08-24T14:56:27;1.60;;;1.50;;
20379;SDS011;10349;48.666;8.948;2022-08-24T15:04:45;2.50;;;2.33;;
20379;SDS011;10349;48.666;8.948;2022-08-24T15:07:33;2.20;;;2.10;;
20379;SDS011;10349;48.666;8.948;2022-08-24T15:10:00;1.93;;;1.83;;
20379;SDS011;10349;48.666;8.948;2022-08-24T15:18:01;1.60;;;1.50;;
20379;SDS011;10349;48.666;8.948;2022-08-24T15:20:45;1.33;;;1.23;;
20379;SDS011;10349;48.666;8.948;2022-08-24T15:23:24;2.00;;;1.90;;
20379;SDS011;10349;48.666;8.948;2022-08-24T15:26:49;1.73;;;1.63;;
20379;SDS011;10349;48.666;8.948;2022-08-24T15:28:53;1.90;;;1.80;;
20379;SDS011;10349;48.666;8.948;2022-08-24T15:31:21;1.37;;;1.27;;
20379;SDS011;10349;48.666;8.948;2022-08-24T15:33:50;2.70;;;2.07;;
20379;SDS011;10349;48.666;8.948;2022-08-24T15:36:18;1.60;;;1.50;;
20379;SDS011;10349;48.666;8.948;2022-08-24T15:38:44;2.03;;;1.93;;
20379;SDS011;10349;48.666;8.948;2022-08-24T15:43:43;1.60;;;1.50;;
20379;SDS011;10349;48.666;8.948;2022-08-24T15:46:39;1.73;;;1.63;;
20379;SDS011;10349;48.666;8.948;2022-08-24T15:49:22;2.13;;;2.03;;
20379;SDS011;10349;48.666;8.948;2022-08-24T15:54:59;2.10;;;2.00;;
20379;SDS011;10349;48.666;8.948;2022-08-24T15:57:28;1.70;;;1.60;;
20379;SDS011;10349;48.666;8.948;2022-08-24T16:00:07;13.13;;;1.87;;
20379;SDS011;10349;48.666;8.948;2022-08-24T16:02:39;2.00;;;1.90;;
20379;SDS011;10349;48.666;8.948;2022-08-24T16:05:10;2.90;;;2.20;;
20379;SDS011;10349;48.666;8.948;2022-08-24T16:10:28;2.13;;;2.03;;
20379;SDS011;10349;48.666;8.948;2022-08-24T16:18:10;2.20;;;2.10;;
20379;SDS011;10349;48.666;8.948;2022-08-24T16:20:37;2.80;;;2.60;;
20379;SDS011;10349;48.666;8.948;2022-08-24T16:23:07;2.20;;;2.10;;
20379;SDS011;10349;48.666;8.948;2022-08-24T16:28:49;2.30;;;2.20;;
20379;SDS011;10349;48.666;8.948;2022-08-24T16:34:20;2.63;;;2.40;;
20379;SDS011;10349;48.666;8.948;2022-08-24T16:36:46;4.73;;;2.13;;
20379;SDS011;10349;48.666;8.948;2022-08-24T16:39:12;2.30;;;2.20;;
20379;SDS011;10349;48.666;8.948;2022-08-24T16:41:38;1.97;;;1.87;;
20379;SDS011;10349;48.666;8.948;2022-08-24T16:44:06;2.60;;;2.47;;
20379;SDS011;10349;48.666;8.948;2022-08-24T16:46:33;2.30;;;2.20;;
20379;SDS011;10349;48.666;8.948;2022-08-24T16:48:59;2.30;;;2.20;;
20379;SDS011;10349;48.666;8.948;2022-08-24T16:51:24;3.87;;;2.53;;
20379;SDS011;10349;48.666;8.948;2022-08-24T16:53:50;2.07;;;1.97;;
20379;SDS011;10349;48.666;8.948;2022-08-24T16:56:16;2.67;;;2.47;;
20379;SDS011;10349;48.666;8.948;2022-08-24T16:58:42;2.20;;;2.10;;
20379;SDS011;10349;48.666;8.948;2022-08-24T17:01:09;2.70;;;2.50;;
20379;SDS011;10349;48.666;8.948;2022-08-24T17:03:35;2.97;;;2.73;;
20379;SDS011;10349;48.666;8.948;2022-08-24T17:06:01;4.40;;;2.77;;
20379;SDS011;10349;48.666;8.948;2022-08-24T17:08:26;2.97;;;2.77;;
20379;SDS011;10349;48.666;8.948;2022-08-24T17:10:53;2.30;;;2.20;;
20379;SDS011;10349;48.666;8.948;2022-08-24T17:13:19;2.40;;;2.30;;
20379;SDS011;10349;48.666;8.948;2022-08-24T17:15:45;3.00;;;2.80;;
20379;SDS011;10349;48.666;8.948;2022-08-24T17:18:11;2.60;;;2.50;;
20379;SDS011;10349;48.666;8.948;2022-08-24T17:20:38;2.70;;;2.60;;
20379;SDS011;10349;48.666;8.948;2022-08-24T17:23:04;2.13;;;2.03;;
20379;SDS011;10349;48.666;8.948;2022-08-24T17:25:30;2.83;;;2.63;;
20379;SDS011;10349;48.666;8.948;2022-08-24T17:27:56;2.23;;;2.13;;
20379;SDS011;10349;48.666;8.948;2022-08-24T17:30:23;3.07;;;2.70;;
20379;SDS011;10349;48.666;8.948;2022-08-24T17:32:50;3.10;;;2.90;;
20379;SDS011;10349;48.666;8.948;2022-08-24T17:35:17;4.23;;;2.60;;
20379;SDS011;10349;48.666;8.948;2022-08-24T17:37:44;2.10;;;2.00;;
20379;SDS011;10349;48.666;8.948;2022-08-24T17:40:13;2.77;;;2.37;;
20379;SDS011;10349;48.666;8.948;2022-08-24T17:42:40;2.77;;;2.60;;
20379;SDS011;10349;48.666;8.948;2022-08-24T17:45:06;3.00;;;2.80;;
20379;SDS011;10349;48.666;8.948;2022-08-24T17:47:33;2.50;;;2.30;;
20379;SDS011;10349;48.666;8.948;2022-08-24T17:50:00;2.70;;;2.50;;
20379;SDS011;10349;48.666;8.948;2022-08-24T17:52:26;2.20;;;2.10;;
20379;SDS011;10349;48.666;8.948;2022-08-24T17:54:52;2.37;;;2.20;;
20379;SDS011;10349;48.666;8.948;2022-08-24T17:57:17;2.13;;;1.93;;
20379;SDS011;10349;48.666;8.948;2022-08-24T17:59:48;2.23;;;2.03;;
20379;SDS011;10349;48.666;8.948;2022-08-24T18:02:14;2.87;;;2.77;;
20379;SDS011;10349;48.666;8.948;2022-08-24T18:04:40;2.07;;;1.97;;
20379;SDS011;10349;48.666;8.948;2022-08-24T18:07:09;3.73;;;2.40;;
20379;SDS011;10349;48.666;8.948;2022-08-24T18:09:38;3.03;;;2.83;;
20379;SDS011;10349;48.666;8.948;2022-08-24T18:12:07;2.20;;;2.10;;
20379;SDS011;10349;48.666;8.948;2022-08-24T18:14:33;2.03;;;1.93;;
20379;SDS011;10349;48.666;8.948;2022-08-24T18:17:03;2.70;;;2.50;;
20379;SDS011;10349;48.666;8.948;2022-08-24T18:19:31;2.80;;;2.60;;
20379;SDS011;10349;48.666;8.948;2022-08-24T18:21:57;3.73;;;2.60;;
20379;SDS011;10349;48.666;8.948;2022-08-24T18:24:26;3.13;;;2.67;;
20379;SDS011;10349;48.666;8.948;2022-08-24T18:27:06;2.13;;;2.03;;
20379;SDS011;10349;48.666;8.948;2022-08-24T18:29:38;2.70;;;2.50;;
20379;SDS011;10349;48.666;8.948;2022-08-24T18:32:06;2.03;;;1.93;;
20379;SDS011;10349;48.666;8.948;2022-08-24T18:34:32;2.90;;;2.70;;
20379;SDS011;10349;48.666;8.948;2022-08-24T18:36:58;2.60;;;2.50;;
20379;SDS011;10349;48.666;8.948;2022-08-24T18:39:24;2.23;;;2.13;;
20379;SDS011;10349;48.666;8.948;2022-08-24T18:41:50;2.10;;;2.00;;
20379;SDS011;10349;48.666;8.948;2022-08-24T18:44:17;2.47;;;2.37;;
20379;SDS011;10349;48.666;8.948;2022-08-24T18:46:46;2.60;;;2.50;;
20379;SDS011;10349;48.666;8.948;2022-08-24T18:49:13;2.70;;;2.50;;